createdAt,value
2022-12-31T00:00:29.487Z,48.40
2022-12-31T00:02:56.970Z,38.00
2022-12-31T00:05:27.516Z,46.53
2022-12-31T00:07:54.318Z,44.53
2022-12-31T00:10:24.539Z,44.50
2022-12-31T00:12:54.086Z,45.45
2022-12-31T00:15:23.337Z,43.08
2022-12-31T00:17:50.280Z,39.50
2022-12-31T00:20:17.757Z,38.80
2022-12-31T00:22:47.935Z,39.95
2022-12-31T00:25:21.257Z,32.80
2022-12-31T00:27:52.813Z,35.05
2022-12-31T00:30:20.983Z,32.42
2022-12-31T00:33:00.388Z,39.67
2022-12-31T00:35:31.518Z,35.83
2022-12-31T00:37:58.379Z,34.72
2022-12-31T00:40:25.520Z,35.47
2022-12-31T00:43:02.749Z,38.05
2022-12-31T00:45:34.563Z,33.92
2022-12-31T00:48:04.523Z,32.42
2022-12-31T00:50:34.371Z,32.00
2022-12-31T00:53:04.814Z,31.77
2022-12-31T00:55:31.678Z,27.67
2022-12-31T00:58:04.415Z,32.30
2022-12-31T01:00:40.874Z,32.45
2022-12-31T01:03:15.140Z,35.13
2022-12-31T01:05:43.993Z,33.83
2022-12-31T01:08:13.851Z,31.70
2022-12-31T01:11:13.971Z,39.60
2022-12-31T01:13:46.398Z,39.25
2022-12-31T01:16:17.657Z,31.50
2022-12-31T01:18:53.800Z,42.88
2022-12-31T01:21:23.742Z,41.75
2022-12-31T01:23:50.782Z,40.53
2022-12-31T01:26:26.899Z,35.08
2022-12-31T01:29:03.013Z,39.97
2022-12-31T01:31:33.463Z,41.85
2022-12-31T01:34:08.357Z,41.50
2022-12-31T01:36:36.927Z,33.15
2022-12-31T01:39:06.253Z,43.17
2022-12-31T01:41:42.732Z,48.08
2022-12-31T01:44:25.010Z,34.75
2022-12-31T01:47:01.028Z,34.47
2022-12-31T01:49:45.834Z,36.15
2022-12-31T01:52:32.096Z,42.15
2022-12-31T01:55:13.623Z,43.33
2022-12-31T01:57:44.333Z,55.42
2022-12-31T02:00:14.913Z,55.05
2022-12-31T02:02:58.812Z,51.67
2022-12-31T02:05:40.866Z,45.47
2022-12-31T02:08:22.857Z,41.97
2022-12-31T02:10:52.843Z,52.42
2022-12-31T02:13:19.846Z,47.55
2022-12-31T02:16:24.876Z,50.70
2022-12-31T02:19:17.132Z,53.35
2022-12-31T02:22:01.188Z,53.17
2022-12-31T02:24:47.730Z,49.20
2022-12-31T02:27:41.066Z,43.42
2022-12-31T02:30:14.587Z,59.83
2022-12-31T02:33:24.603Z,44.03
2022-12-31T02:36:03.449Z,65.43
2022-12-31T02:38:34.774Z,63.03
2022-12-31T02:41:02.198Z,41.70
2022-12-31T02:43:29.216Z,44.05
2022-12-31T02:46:11.465Z,59.17
2022-12-31T02:49:06.605Z,47.08
2022-12-31T02:51:58.415Z,48.10
2022-12-31T02:54:48.616Z,51.15
2022-12-31T02:57:30.320Z,56.95
2022-12-31T03:00:31.004Z,61.78
2022-12-31T03:03:00.035Z,51.35
2022-12-31T03:05:33.689Z,54.35
2022-12-31T03:08:04.929Z,59.65
2022-12-31T03:10:35.010Z,52.58
2022-12-31T03:13:02.806Z,54.72
2022-12-31T03:15:39.304Z,54.00
2022-12-31T03:18:16.912Z,57.65
2022-12-31T03:21:10.012Z,52.13
2022-12-31T03:24:05.293Z,58.28
2022-12-31T03:26:32.692Z,51.97
2022-12-31T03:29:00.324Z,55.33
2022-12-31T03:31:27.553Z,54.65
2022-12-31T03:33:59.053Z,60.63
2022-12-31T03:36:26.680Z,55.33
2022-12-31T03:38:57.136Z,54.05
2022-12-31T03:41:27.026Z,46.53
2022-12-31T03:43:56.877Z,50.15
2022-12-31T03:46:23.744Z,44.90
2022-12-31T03:48:53.091Z,45.05
2022-12-31T03:51:19.918Z,44.20
2022-12-31T03:53:46.726Z,51.63
2022-12-31T03:56:16.708Z,47.78
2022-12-31T03:58:46.535Z,49.53
2022-12-31T04:01:16.445Z,51.38
2022-12-31T04:03:52.092Z,48.60
2022-12-31T04:06:24.595Z,51.53
2022-12-31T04:11:25.044Z,43.10
2022-12-31T04:13:54.915Z,52.10
2022-12-31T04:16:22.338Z,45.22
2022-12-31T04:18:54.864Z,43.75
2022-12-31T04:24:03.102Z,44.63
2022-12-31T04:26:35.981Z,45.55
2022-12-31T04:29:02.898Z,49.65
2022-12-31T04:31:31.486Z,41.03
2022-12-31T04:33:59.579Z,37.60
2022-12-31T04:36:29.461Z,40.10
2022-12-31T04:39:02.413Z,36.85
2022-12-31T04:41:31.452Z,39.60
2022-12-31T04:43:59.756Z,37.35
2022-12-31T04:49:13.167Z,34.85
2022-12-31T04:51:44.896Z,37.25
2022-12-31T04:54:26.560Z,43.50
2022-12-31T04:57:02.414Z,34.95
2022-12-31T04:59:32.412Z,33.15
2022-12-31T05:02:01.889Z,38.05
2022-12-31T05:04:28.961Z,34.20
2022-12-31T05:06:58.687Z,36.78
2022-12-31T05:09:34.935Z,34.33
2022-12-31T05:12:01.823Z,35.63
2022-12-31T05:14:28.621Z,36.83
2022-12-31T05:17:04.537Z,36.60
2022-12-31T05:19:31.417Z,30.98
2022-12-31T05:22:21.526Z,33.88
2022-12-31T05:24:48.509Z,34.08
2022-12-31T05:27:15.303Z,33.75
2022-12-31T05:29:53.460Z,34.53
2022-12-31T05:32:23.201Z,35.60
2022-12-31T05:34:50.057Z,33.80
2022-12-31T05:37:16.898Z,32.10
2022-12-31T05:39:46.881Z,36.80
2022-12-31T05:42:16.214Z,33.63
2022-12-31T05:44:43.086Z,29.83
2022-12-31T05:47:10.037Z,32.38
2022-12-31T05:49:45.870Z,28.75
2022-12-31T05:52:12.806Z,30.00
2022-12-31T05:54:39.783Z,27.52
2022-12-31T05:57:08.955Z,28.27
2022-12-31T05:59:36.059Z,33.53
2022-12-31T06:02:02.924Z,28.55
2022-12-31T06:04:31.912Z,27.02
2022-12-31T06:07:01.914Z,25.70
2022-12-31T06:09:28.817Z,26.80
2022-12-31T06:11:55.820Z,25.17
2022-12-31T06:14:22.937Z,25.90
2022-12-31T06:16:51.329Z,22.45
2022-12-31T06:19:18.345Z,24.30
2022-12-31T06:21:45.410Z,24.90
2022-12-31T06:24:12.530Z,24.83
2022-12-31T06:26:39.470Z,27.33
2022-12-31T06:29:12.207Z,23.63
2022-12-31T06:31:41.225Z,23.75
2022-12-31T06:34:08.184Z,22.52
2022-12-31T06:36:39.721Z,23.27
2022-12-31T06:39:09.544Z,25.50
2022-12-31T06:41:36.562Z,28.60
2022-12-31T06:44:03.505Z,22.10
2022-12-31T06:46:30.288Z,23.95
2022-12-31T06:48:57.125Z,25.77
2022-12-31T06:51:25.540Z,24.23
2022-12-31T06:53:52.594Z,21.73
2022-12-31T06:56:33.027Z,21.00
2022-12-31T06:59:01.593Z,20.40
2022-12-31T07:01:36.774Z,28.40
2022-12-31T07:04:29.188Z,28.38
2022-12-31T07:07:17.435Z,24.63
2022-12-31T07:10:22.773Z,18.75
2022-12-31T07:13:23.778Z,23.55
2022-12-31T07:16:05.237Z,26.88
2022-12-31T07:18:43.553Z,25.38
2022-12-31T07:21:17.638Z,26.17
2022-12-31T07:23:47.521Z,30.73
2022-12-31T07:26:31.539Z,23.00
2022-12-31T07:29:15.064Z,27.10
2022-12-31T07:32:09.064Z,27.95
2022-12-31T07:35:04.021Z,27.85
2022-12-31T07:37:57.586Z,33.22
2022-12-31T07:40:57.814Z,22.70
2022-12-31T07:43:50.368Z,23.13
2022-12-31T07:46:43.648Z,24.35
2022-12-31T07:49:12.580Z,22.50
2022-12-31T07:51:46.280Z,23.30
2022-12-31T07:54:16.024Z,21.42
2022-12-31T07:56:44.455Z,20.00
2022-12-31T07:59:24.670Z,25.73
2022-12-31T08:02:03.403Z,28.42
2022-12-31T08:04:53.060Z,21.70
2022-12-31T08:07:57.131Z,24.38
2022-12-31T08:10:39.672Z,26.05
2022-12-31T08:13:10.988Z,24.70
2022-12-31T08:15:41.743Z,26.20
2022-12-31T08:18:17.656Z,25.67
2022-12-31T08:21:12.555Z,22.85
2022-12-31T08:23:48.524Z,27.00
2022-12-31T08:26:37.303Z,29.45
2022-12-31T08:29:22.832Z,27.60
2022-12-31T08:32:17.159Z,26.23
2022-12-31T08:34:55.965Z,23.25
2022-12-31T08:37:51.035Z,26.10
2022-12-31T08:40:45.517Z,26.08
2022-12-31T08:43:19.460Z,30.48
2022-12-31T08:45:51.759Z,24.40
2022-12-31T08:48:23.251Z,28.75
2022-12-31T08:50:50.279Z,19.83
2022-12-31T08:53:17.402Z,29.13
2022-12-31T08:55:46.506Z,29.65
2022-12-31T08:58:28.054Z,20.90
2022-12-31T09:00:59.489Z,26.60
2022-12-31T09:03:50.870Z,29.70
2022-12-31T09:06:41.318Z,35.75
2022-12-31T09:09:26.536Z,32.53
2022-12-31T09:12:36.410Z,32.28
2022-12-31T09:15:14.275Z,29.70
2022-12-31T09:17:52.524Z,25.98
2022-12-31T09:20:44.724Z,35.67
2022-12-31T09:23:13.038Z,37.70
2022-12-31T09:26:04.177Z,38.40
2022-12-31T09:28:43.445Z,41.42
2022-12-31T09:31:30.458Z,43.15
2022-12-31T09:34:09.882Z,36.33
2022-12-31T09:36:54.279Z,42.58
2022-12-31T09:39:46.882Z,41.17
2022-12-31T09:42:44.203Z,47.60
2022-12-31T09:45:38.344Z,48.72
2022-12-31T09:48:28.348Z,46.80
2022-12-31T09:51:25.502Z,38.78
2022-12-31T09:54:28.386Z,44.97
2022-12-31T09:57:18.459Z,35.72
2022-12-31T10:00:08.861Z,37.67
2022-12-31T10:02:49.685Z,40.55
2022-12-31T10:05:52.230Z,43.33
2022-12-31T10:08:51.390Z,43.80
2022-12-31T10:11:58.952Z,39.42
2022-12-31T10:15:25.161Z,43.33
2022-12-31T10:18:44.244Z,43.38
2022-12-31T10:21:47.449Z,36.45
2022-12-31T10:24:32.989Z,35.72
2022-12-31T10:27:27.851Z,39.78
2022-12-31T10:30:14.909Z,44.58
2022-12-31T10:33:02.525Z,42.65
2022-12-31T10:35:54.825Z,42.80
2022-12-31T10:38:58.015Z,37.80
2022-12-31T10:41:55.803Z,44.08
2022-12-31T10:44:46.966Z,42.17
2022-12-31T10:47:22.786Z,45.50
2022-12-31T10:50:34.558Z,39.78
2022-12-31T10:53:24.035Z,41.20
2022-12-31T10:56:25.950Z,38.55
2022-12-31T10:59:11.701Z,41.65
2022-12-31T11:02:16.148Z,44.28
2022-12-31T11:04:58.254Z,36.30
2022-12-31T11:07:44.087Z,39.47
2022-12-31T11:10:41.668Z,38.95
2022-12-31T11:13:34.024Z,32.53
2022-12-31T11:16:24.586Z,35.35
2022-12-31T11:19:06.418Z,34.58
2022-12-31T11:21:52.872Z,35.57
2022-12-31T11:24:24.992Z,37.70
2022-12-31T11:27:12.787Z,38.88
2022-12-31T11:30:03.497Z,39.20
2022-12-31T11:32:56.749Z,39.25
2022-12-31T11:35:43.714Z,40.42
2022-12-31T11:38:26.369Z,38.08
2022-12-31T11:41:31.558Z,37.00
2022-12-31T11:44:19.737Z,36.45
2022-12-31T11:47:02.421Z,36.35
2022-12-31T11:52:21.817Z,34.35
2022-12-31T11:57:36.515Z,40.90
2022-12-31T12:00:20.872Z,33.67
2022-12-31T12:03:05.278Z,31.77
2022-12-31T12:05:37.020Z,32.13
2022-12-31T12:08:22.540Z,31.80
2022-12-31T12:10:56.801Z,27.30
2022-12-31T12:13:27.548Z,30.88
2022-12-31T12:16:04.679Z,31.08
2022-12-31T12:18:38.945Z,28.67
2022-12-31T12:21:12.518Z,28.00
2022-12-31T12:23:40.763Z,31.23
2022-12-31T12:26:29.210Z,30.67
2022-12-31T12:29:17.524Z,27.17
2022-12-31T12:32:20.900Z,31.65
2022-12-31T12:34:58.585Z,33.22
2022-12-31T12:37:35.677Z,29.00
2022-12-31T12:40:09.616Z,31.85
2022-12-31T12:42:36.556Z,31.80
2022-12-31T12:45:09.688Z,30.42
2022-12-31T12:47:37.190Z,27.92
2022-12-31T12:50:05.325Z,27.33
2022-12-31T12:53:12.145Z,32.00
2022-12-31T12:56:23.302Z,36.92
2022-12-31T12:59:24.475Z,28.42
2022-12-31T13:02:08.814Z,33.28
2022-12-31T13:05:07.763Z,27.73
2022-12-31T13:08:04.328Z,39.47
2022-12-31T13:11:01.470Z,25.90
2022-12-31T13:14:00.254Z,30.23
2022-12-31T13:16:39.584Z,35.22
2022-12-31T13:19:23.103Z,32.33
2022-12-31T13:22:16.594Z,33.78
2022-12-31T13:25:31.029Z,36.65
2022-12-31T13:28:05.408Z,33.90
2022-12-31T13:30:43.463Z,31.60
2022-12-31T13:33:18.818Z,31.00
2022-12-31T13:35:51.082Z,33.30
2022-12-31T13:38:21.776Z,28.65
2022-12-31T13:40:55.647Z,35.75
2022-12-31T13:44:05.792Z,37.42
2022-12-31T13:46:47.151Z,34.53
2022-12-31T13:49:21.473Z,34.67
2022-12-31T13:52:18.112Z,34.65
2022-12-31T13:55:04.843Z,30.65
2022-12-31T13:57:52.633Z,29.33
2022-12-31T14:00:31.444Z,28.00
2022-12-31T14:03:24.884Z,27.65
2022-12-31T14:06:00.364Z,28.02
2022-12-31T14:08:28.034Z,32.22
2022-12-31T14:11:09.442Z,34.00
2022-12-31T14:14:13.240Z,34.33
2022-12-31T14:17:20.523Z,29.20
2022-12-31T14:20:02.103Z,34.40
2022-12-31T14:22:38.028Z,34.53
2022-12-31T14:25:22.550Z,29.35
2022-12-31T14:27:52.762Z,33.25
2022-12-31T14:30:25.950Z,36.47
2022-12-31T14:33:30.300Z,39.22
2022-12-31T14:36:21.427Z,30.77
2022-12-31T14:39:20.731Z,31.20
2022-12-31T14:42:06.488Z,37.30
2022-12-31T14:45:05.481Z,39.72
2022-12-31T14:47:47.886Z,27.50
2022-12-31T14:50:21.281Z,41.58
2022-12-31T14:52:51.149Z,40.90
2022-12-31T14:55:29.218Z,38.13
2022-12-31T14:58:27.037Z,43.38
2022-12-31T15:00:59.850Z,38.95
2022-12-31T15:03:47.044Z,57.17
2022-12-31T15:06:23.052Z,39.25
2022-12-31T15:09:38.343Z,38.92
2022-12-31T15:12:07.202Z,41.00
2022-12-31T15:15:02.965Z,35.20
2022-12-31T15:18:14.076Z,40.78
2022-12-31T15:21:01.191Z,39.15
2022-12-31T15:23:47.021Z,29.33
2022-12-31T15:26:24.711Z,28.48
2022-12-31T15:29:21.458Z,39.58
2022-12-31T15:31:50.123Z,35.55
2022-12-31T15:34:39.399Z,27.48
2022-12-31T15:37:26.399Z,33.47
2022-12-31T15:40:09.797Z,40.83
2022-12-31T15:42:58.882Z,40.88
2022-12-31T15:45:37.593Z,30.48
2022-12-31T15:48:14.811Z,42.65
2022-12-31T15:50:49.355Z,29.60
2022-12-31T15:53:28.983Z,43.40
2022-12-31T15:55:58.389Z,35.10
2022-12-31T15:58:35.967Z,48.55
2022-12-31T16:01:13.424Z,28.77
2022-12-31T16:03:46.072Z,42.95
2022-12-31T16:06:15.237Z,33.70
2022-12-31T16:08:46.403Z,43.95
2022-12-31T16:11:13.410Z,46.92
2022-12-31T16:13:44.410Z,44.35
2022-12-31T16:16:28.867Z,47.10
2022-12-31T16:18:58.085Z,54.67
2022-12-31T16:21:36.116Z,49.83
2022-12-31T16:24:25.062Z,52.13
2022-12-31T16:26:59.363Z,54.03
2022-12-31T16:29:31.041Z,51.70
2022-12-31T16:31:58.622Z,49.55
2022-12-31T16:34:29.885Z,51.40
2022-12-31T16:37:02.575Z,49.63
2022-12-31T16:39:45.391Z,54.05
2022-12-31T16:42:20.185Z,53.15
2022-12-31T16:45:33.313Z,53.60
2022-12-31T16:48:17.204Z,55.00
2022-12-31T16:50:54.942Z,39.83
2022-12-31T16:53:30.008Z,53.90
2022-12-31T16:56:09.358Z,39.38
2022-12-31T16:58:44.096Z,53.90
2022-12-31T17:03:47.529Z,45.38
2022-12-31T17:06:20.342Z,53.95
2022-12-31T17:09:00.951Z,51.38
2022-12-31T17:11:33.221Z,47.45
2022-12-31T17:14:09.624Z,58.97
2022-12-31T17:17:03.151Z,58.90
2022-12-31T17:19:39.046Z,35.70
2022-12-31T17:22:36.997Z,54.47
2022-12-31T17:25:07.428Z,53.95
2022-12-31T17:27:39.895Z,56.45
2022-12-31T17:33:13.667Z,50.88
2022-12-31T17:35:45.071Z,57.67
2022-12-31T17:38:28.132Z,42.22
2022-12-31T17:43:40.639Z,43.53
2022-12-31T17:46:16.585Z,42.03
2022-12-31T17:48:49.852Z,56.50
2022-12-31T17:51:24.167Z,42.25
2022-12-31T17:53:51.625Z,62.75
2022-12-31T17:56:19.981Z,40.35
2022-12-31T17:58:51.653Z,63.42
2022-12-31T18:01:21.869Z,59.00
2022-12-31T18:03:51.034Z,45.63
2022-12-31T18:06:19.898Z,63.20
2022-12-31T18:08:49.745Z,60.40
2022-12-31T18:11:22.751Z,63.58
2022-12-31T18:13:50.002Z,61.70
2022-12-31T18:16:17.115Z,64.45
2022-12-31T18:18:45.652Z,63.97
2022-12-31T18:21:43.092Z,63.40
2022-12-31T18:24:24.235Z,57.25
2022-12-31T18:26:52.864Z,60.58
2022-12-31T18:29:20.213Z,62.83
2022-12-31T18:31:49.483Z,62.83
2022-12-31T18:34:27.412Z,66.30
2022-12-31T18:37:02.176Z,60.53
2022-12-31T18:39:29.201Z,63.60
2022-12-31T18:41:58.246Z,61.30
2022-12-31T18:44:27.306Z,53.03
2022-12-31T18:46:54.176Z,56.30
2022-12-31T18:49:24.054Z,49.58
2022-12-31T18:51:54.316Z,54.88
2022-12-31T18:54:21.716Z,55.05
2022-12-31T18:56:53.921Z,52.55
2022-12-31T18:59:26.524Z,55.08
2022-12-31T19:01:58.778Z,54.15
2022-12-31T19:04:28.498Z,48.85
2022-12-31T19:06:59.164Z,63.47
2022-12-31T19:12:16.424Z,62.40
2022-12-31T19:14:49.446Z,60.85
2022-12-31T19:17:19.386Z,38.13
2022-12-31T19:19:46.286Z,61.72
2022-12-31T19:22:16.483Z,59.17
2022-12-31T19:24:45.281Z,54.28
2022-12-31T19:27:17.242Z,67.00
2022-12-31T19:29:45.512Z,58.58
2022-12-31T19:32:12.711Z,54.80
2022-12-31T19:34:53.703Z,59.30
2022-12-31T19:37:20.666Z,61.80
2022-12-31T19:39:49.333Z,65.68
2022-12-31T19:42:17.023Z,63.40
2022-12-31T19:44:46.426Z,58.67
2022-12-31T19:47:15.022Z,61.58
2022-12-31T19:49:41.915Z,66.10
2022-12-31T19:52:08.726Z,66.15
2022-12-31T19:54:37.182Z,62.22
2022-12-31T19:57:29.634Z,63.90
2022-12-31T19:59:58.935Z,52.30
2022-12-31T20:02:31.198Z,46.80
2022-12-31T20:05:01.198Z,60.65
2022-12-31T20:07:37.297Z,44.42
2022-12-31T20:10:08.215Z,63.85
2022-12-31T20:12:42.320Z,65.47
2022-12-31T20:15:12.604Z,65.18
2022-12-31T20:17:46.909Z,47.42
2022-12-31T20:20:14.023Z,56.42
2022-12-31T20:22:50.564Z,54.20
2022-12-31T20:25:17.904Z,59.58
2022-12-31T20:27:47.763Z,52.22
2022-12-31T20:30:16.702Z,55.75
2022-12-31T20:32:52.860Z,57.17
2022-12-31T20:35:20.601Z,59.42
2022-12-31T20:37:51.265Z,63.58
2022-12-31T20:40:18.149Z,57.70
2022-12-31T20:42:44.920Z,58.10
2022-12-31T20:45:12.103Z,54.60
2022-12-31T20:47:44.340Z,57.88
2022-12-31T20:50:12.443Z,59.22
2022-12-31T20:52:41.307Z,61.03
2022-12-31T20:55:13.958Z,56.60
2022-12-31T20:57:44.045Z,57.47
2022-12-31T21:00:16.597Z,62.80
2022-12-31T21:05:40.142Z,46.20
2022-12-31T21:08:07.269Z,61.88
2022-12-31T21:10:36.809Z,45.50
2022-12-31T21:13:06.097Z,58.20
2022-12-31T21:15:34.310Z,44.45
2022-12-31T21:18:01.238Z,49.70
2022-12-31T21:20:28.200Z,62.10
2022-12-31T21:23:01.542Z,59.65
2022-12-31T21:25:28.752Z,64.35
2022-12-31T21:27:55.797Z,69.30
2022-12-31T21:30:29.528Z,64.88
2022-12-31T21:32:56.441Z,70.38
2022-12-31T21:35:48.400Z,67.93
2022-12-31T21:38:15.183Z,66.20
2022-12-31T21:40:42.368Z,65.63
2022-12-31T21:43:12.809Z,64.55
2022-12-31T21:46:01.282Z,49.28
2022-12-31T21:48:28.362Z,59.85
2022-12-31T21:51:10.118Z,60.30
2022-12-31T21:53:37.705Z,65.77
2022-12-31T21:56:12.250Z,65.13
2022-12-31T21:58:47.579Z,67.72
2022-12-31T22:01:38.608Z,71.50
2022-12-31T22:04:07.953Z,71.78
2022-12-31T22:06:46.451Z,68.07
2022-12-31T22:09:13.408Z,79.43
2022-12-31T22:11:42.791Z,87.72
2022-12-31T22:14:15.842Z,73.38
2022-12-31T22:16:46.936Z,73.07
2022-12-31T22:19:17.120Z,74.25
2022-12-31T22:21:44.116Z,76.10
2022-12-31T22:24:13.360Z,81.85
2022-12-31T22:26:46.678Z,78.72
2022-12-31T22:29:13.928Z,79.88
2022-12-31T22:31:44.465Z,77.68
2022-12-31T22:34:11.362Z,82.25
2022-12-31T22:36:38.209Z,87.63
2022-12-31T22:39:05.087Z,94.50
2022-12-31T22:41:32.121Z,93.32
2022-12-31T22:44:04.432Z,91.65
2022-12-31T22:46:36.140Z,82.75
2022-12-31T22:49:07.312Z,92.40
2022-12-31T22:51:56.859Z,88.18
2022-12-31T22:54:31.893Z,84.82
2022-12-31T22:56:58.878Z,86.53
2022-12-31T22:59:25.747Z,82.45
2022-12-31T23:02:16.699Z,90.05
2022-12-31T23:04:49.919Z,95.03
2022-12-31T23:07:19.212Z,93.53
2022-12-31T23:10:04.727Z,102.55
2022-12-31T23:12:31.764Z,105.13
2022-12-31T23:15:17.343Z,114.05
2022-12-31T23:18:07.124Z,112.68
2022-12-31T23:20:52.728Z,119.95
2022-12-31T23:26:02.334Z,153.45
2022-12-31T23:28:29.274Z,225.82
2022-12-31T23:30:56.259Z,209.30
2022-12-31T23:33:26.925Z,207.98
2022-12-31T23:36:12.842Z,209.43
2022-12-31T23:38:39.818Z,201.75
2022-12-31T23:41:14.632Z,214.38
2022-12-31T23:43:47.519Z,219.10
2022-12-31T23:46:16.217Z,221.13
2022-12-31T23:48:43.837Z,216.40
2022-12-31T23:51:16.978Z,218.60
2022-12-31T23:53:43.835Z,211.07
2022-12-31T23:56:23.357Z,194.77
2022-12-31T23:58:55.955Z,198.90
